createdAt,value
2022-11-29T00:00:02.726Z,20.30
2022-11-29T00:02:31.465Z,20.13
2022-11-29T00:05:00.950Z,22.23
2022-11-29T00:07:29.065Z,21.13
2022-11-29T00:09:57.145Z,21.30
2022-11-29T00:12:25.156Z,20.53
2022-11-29T00:14:53.172Z,20.90
2022-11-29T00:17:21.169Z,21.33
2022-11-29T00:19:49.251Z,20.40
2022-11-29T00:22:18.642Z,21.70
2022-11-29T00:24:46.778Z,23.10
2022-11-29T00:27:14.863Z,22.13
2022-11-29T00:29:42.891Z,21.77
2022-11-29T00:32:11.046Z,21.33
2022-11-29T00:34:39.204Z,20.67
2022-11-29T00:37:07.213Z,20.43
2022-11-29T00:39:36.650Z,21.13
2022-11-29T00:42:04.810Z,22.07
2022-11-29T00:44:32.825Z,22.13
2022-11-29T00:47:00.807Z,22.70
2022-11-29T00:49:28.860Z,21.20
2022-11-29T00:51:56.963Z,22.43
2022-11-29T00:54:25.055Z,22.83
2022-11-29T00:56:54.595Z,22.80
2022-11-29T00:59:22.832Z,24.07
2022-11-29T01:01:50.907Z,23.00
2022-11-29T01:04:19.031Z,23.53
2022-11-29T01:06:47.298Z,22.73
2022-11-29T01:09:15.330Z,23.57
2022-11-29T01:11:43.379Z,22.23
2022-11-29T01:14:14.411Z,23.43
2022-11-29T01:16:42.704Z,24.43
2022-11-29T01:19:10.829Z,24.17
2022-11-29T01:21:39.180Z,24.40
2022-11-29T01:24:07.453Z,24.57
2022-11-29T01:26:35.634Z,25.47
2022-11-29T01:29:03.665Z,23.90
2022-11-29T01:31:36.330Z,25.63
2022-11-29T01:34:06.479Z,26.57
2022-11-29T01:36:35.268Z,26.47
2022-11-29T01:39:04.635Z,27.13
2022-11-29T01:41:34.296Z,27.00
2022-11-29T01:44:05.778Z,26.73
2022-11-29T01:46:36.756Z,27.17
2022-11-29T01:49:10.068Z,28.67
2022-11-29T01:51:42.520Z,28.57
2022-11-29T01:54:12.021Z,28.43
2022-11-29T01:56:40.884Z,29.00
2022-11-29T01:59:12.553Z,27.77
2022-11-29T02:01:42.337Z,29.57
2022-11-29T02:04:10.511Z,30.30
2022-11-29T02:06:39.871Z,30.00
2022-11-29T02:09:19.876Z,29.80
2022-11-29T02:12:04.890Z,30.93
2022-11-29T02:14:45.430Z,28.67
2022-11-29T02:17:26.120Z,30.33
2022-11-29T02:20:40.728Z,30.93
2022-11-29T02:23:28.586Z,29.13
2022-11-29T02:26:10.175Z,28.87
2022-11-29T02:29:06.420Z,29.53
2022-11-29T02:31:57.117Z,29.93
2022-11-29T02:34:47.308Z,29.10
2022-11-29T02:37:31.095Z,29.60
2022-11-29T02:40:24.153Z,30.70
2022-11-29T02:43:20.436Z,29.03
2022-11-29T02:46:04.781Z,30.20
2022-11-29T02:48:56.581Z,31.23
2022-11-29T02:51:32.158Z,30.67
2022-11-29T02:54:07.308Z,30.90
2022-11-29T02:56:41.866Z,30.57
2022-11-29T02:59:17.685Z,30.53
2022-11-29T03:01:55.715Z,31.17
2022-11-29T03:04:32.783Z,31.87
2022-11-29T03:07:08.285Z,31.17
2022-11-29T03:09:40.581Z,30.70
2022-11-29T03:12:17.886Z,31.50
2022-11-29T03:14:56.973Z,32.57
2022-11-29T03:17:38.929Z,31.90
2022-11-29T03:20:23.910Z,31.40
2022-11-29T03:23:07.659Z,34.03
2022-11-29T03:25:40.675Z,32.90
2022-11-29T03:28:15.903Z,32.47
2022-11-29T03:30:51.758Z,33.30
2022-11-29T03:33:25.755Z,32.60
2022-11-29T03:36:01.359Z,31.17
2022-11-29T03:38:39.416Z,32.97
2022-11-29T03:41:18.776Z,32.87
2022-11-29T03:43:52.061Z,32.10
2022-11-29T03:46:28.798Z,32.77
2022-11-29T03:49:03.573Z,32.47
2022-11-29T03:51:44.805Z,32.80
2022-11-29T03:54:18.848Z,30.23
2022-11-29T03:56:47.585Z,31.73
2022-11-29T03:59:31.956Z,32.63
2022-11-29T04:02:40.519Z,31.70
2022-11-29T04:05:29.109Z,31.97
2022-11-29T04:08:37.172Z,31.60
2022-11-29T04:11:33.852Z,30.97
2022-11-29T04:14:28.972Z,32.43
2022-11-29T04:17:42.044Z,33.17
2022-11-29T04:20:48.883Z,31.97
2022-11-29T04:23:56.936Z,32.27
2022-11-29T04:26:51.682Z,33.10
2022-11-29T04:29:52.064Z,31.90
2022-11-29T04:33:03.036Z,31.43
2022-11-29T04:35:59.408Z,31.60
2022-11-29T04:38:49.454Z,30.97
2022-11-29T04:41:36.196Z,32.33
2022-11-29T04:44:25.617Z,31.57
2022-11-29T04:47:20.964Z,31.83
2022-11-29T04:50:08.929Z,30.87
2022-11-29T04:53:11.229Z,30.63
2022-11-29T04:55:48.553Z,31.80
2022-11-29T04:58:25.886Z,29.57
2022-11-29T05:01:00.777Z,30.73
2022-11-29T05:03:38.927Z,31.83
2022-11-29T05:06:20.912Z,31.00
2022-11-29T05:08:57.217Z,31.93
2022-11-29T05:11:35.756Z,31.93
2022-11-29T05:14:16.077Z,30.33
2022-11-29T05:17:02.116Z,31.70
2022-11-29T05:19:53.004Z,31.63
2022-11-29T05:22:32.629Z,30.93
2022-11-29T05:25:13.902Z,31.13
2022-11-29T05:27:47.819Z,30.67
2022-11-29T05:30:20.983Z,31.87
2022-11-29T05:33:05.546Z,31.57
2022-11-29T05:35:52.636Z,30.90
2022-11-29T05:38:51.780Z,32.47
2022-11-29T05:41:44.664Z,31.37
2022-11-29T05:44:15.119Z,30.73
2022-11-29T05:46:54.440Z,31.93
2022-11-29T05:49:30.622Z,33.80
2022-11-29T05:52:09.053Z,33.03
2022-11-29T05:54:44.072Z,33.83
2022-11-29T05:57:20.764Z,33.70
2022-11-29T05:59:52.110Z,33.53
2022-11-29T06:02:37.028Z,32.57
2022-11-29T06:05:13.244Z,33.93
2022-11-29T06:07:48.583Z,32.77
2022-11-29T06:10:19.314Z,33.77
2022-11-29T06:12:54.912Z,34.07
2022-11-29T06:15:49.984Z,34.43
2022-11-29T06:18:36.222Z,33.90
2022-11-29T06:21:16.383Z,32.83
2022-11-29T06:24:05.838Z,34.53
2022-11-29T06:26:53.094Z,33.40
2022-11-29T06:29:28.905Z,34.23
2022-11-29T06:32:08.378Z,34.67
2022-11-29T06:34:44.440Z,35.63
2022-11-29T06:37:20.176Z,33.53
2022-11-29T06:39:48.774Z,35.73
2022-11-29T06:42:16.995Z,34.10
2022-11-29T06:44:45.617Z,36.47
2022-11-29T06:47:23.921Z,35.37
2022-11-29T06:49:59.246Z,36.73
2022-11-29T06:52:36.374Z,35.30
2022-11-29T06:55:13.224Z,36.73
2022-11-29T06:58:02.163Z,36.83
2022-11-29T07:00:41.282Z,35.37
2022-11-29T07:03:42.444Z,38.20
2022-11-29T07:06:16.487Z,35.77
2022-11-29T07:08:45.242Z,36.70
2022-11-29T07:11:14.441Z,36.93
2022-11-29T07:13:42.990Z,35.90
2022-11-29T07:16:19.060Z,35.53
2022-11-29T07:18:55.651Z,37.13
2022-11-29T07:21:40.493Z,34.73
2022-11-29T07:24:18.682Z,36.03
2022-11-29T07:26:59.764Z,36.10
2022-11-29T07:29:39.960Z,33.60
2022-11-29T07:32:15.908Z,36.97
2022-11-29T07:34:56.126Z,35.57
2022-11-29T07:37:36.032Z,35.90
2022-11-29T07:40:12.111Z,35.70
2022-11-29T07:42:49.886Z,36.10
2022-11-29T07:45:23.617Z,36.63
2022-11-29T07:47:51.653Z,36.40
2022-11-29T07:50:20.094Z,36.97
2022-11-29T07:52:49.797Z,36.10
2022-11-29T07:55:19.654Z,37.07
2022-11-29T07:57:47.980Z,35.87
2022-11-29T08:00:17.116Z,35.67
2022-11-29T08:02:45.248Z,38.07
2022-11-29T08:05:13.491Z,37.70
2022-11-29T08:07:42.670Z,37.40
2022-11-29T08:10:14.245Z,38.07
2022-11-29T08:12:44.242Z,37.13
2022-11-29T08:15:13.042Z,35.83
2022-11-29T08:17:41.290Z,35.53
2022-11-29T08:20:10.809Z,36.03
2022-11-29T08:22:39.087Z,37.20
2022-11-29T08:25:08.698Z,36.10
2022-11-29T08:27:39.007Z,37.23
2022-11-29T08:30:08.880Z,36.03
2022-11-29T08:32:37.037Z,35.83
2022-11-29T08:35:05.288Z,36.27
2022-11-29T08:37:33.291Z,36.13
2022-11-29T08:40:01.298Z,36.13
2022-11-29T08:42:29.315Z,37.47
2022-11-29T08:44:58.689Z,36.57
2022-11-29T08:47:38.436Z,38.33
2022-11-29T08:50:10.188Z,36.90
2022-11-29T08:52:57.322Z,36.93
2022-11-29T08:55:26.897Z,36.10
2022-11-29T08:58:00.977Z,38.03
2022-11-29T09:00:30.363Z,37.67
2022-11-29T09:03:19.168Z,37.17
2022-11-29T09:05:47.276Z,37.80
2022-11-29T09:08:15.730Z,36.67
2022-11-29T09:10:44.135Z,37.97
2022-11-29T09:13:12.620Z,36.60
2022-11-29T09:15:43.679Z,37.60
2022-11-29T09:18:12.080Z,38.93
2022-11-29T09:20:43.630Z,37.60
2022-11-29T09:23:12.238Z,38.47
2022-11-29T09:25:40.315Z,37.87
2022-11-29T09:28:08.700Z,39.00
2022-11-29T09:30:38.155Z,37.73
2022-11-29T09:33:07.588Z,37.90
2022-11-29T09:35:35.769Z,38.40
2022-11-29T09:38:04.175Z,38.67
2022-11-29T09:40:35.021Z,38.57
2022-11-29T09:43:12.131Z,37.97
2022-11-29T09:45:45.212Z,37.20
2022-11-29T09:48:38.243Z,37.13
2022-11-29T09:51:18.516Z,37.63
2022-11-29T09:53:59.443Z,38.07
2022-11-29T09:56:34.859Z,37.60
2022-11-29T09:59:06.107Z,37.33
2022-11-29T10:01:38.634Z,39.30
2022-11-29T10:04:13.328Z,37.00
2022-11-29T10:06:44.694Z,38.30
2022-11-29T10:09:21.676Z,37.90
2022-11-29T10:12:01.159Z,37.50
2022-11-29T10:14:34.726Z,38.17
2022-11-29T10:17:08.247Z,36.07
2022-11-29T10:19:40.965Z,37.80
2022-11-29T10:22:19.016Z,38.57
2022-11-29T10:24:51.094Z,36.77
2022-11-29T10:27:22.681Z,36.33
2022-11-29T10:29:51.264Z,38.40
2022-11-29T10:32:21.630Z,37.77
2022-11-29T10:34:51.917Z,38.73
2022-11-29T10:37:22.399Z,36.53
2022-11-29T10:39:54.115Z,37.37
2022-11-29T10:42:41.294Z,39.20
2022-11-29T10:45:17.887Z,37.47
2022-11-29T10:47:47.842Z,37.13
2022-11-29T10:50:22.577Z,36.23
2022-11-29T10:52:51.504Z,37.27
2022-11-29T10:55:23.852Z,37.13
2022-11-29T10:58:12.385Z,38.27
2022-11-29T11:00:54.856Z,36.63
2022-11-29T11:03:39.356Z,37.03
2022-11-29T11:06:12.473Z,36.40
2022-11-29T11:08:43.700Z,35.50
2022-11-29T11:11:12.842Z,37.60
2022-11-29T11:13:41.938Z,39.53
2022-11-29T11:16:16.571Z,38.93
2022-11-29T11:18:46.308Z,37.40
2022-11-29T11:21:19.090Z,38.07
2022-11-29T11:23:54.166Z,38.33
2022-11-29T11:26:23.088Z,38.17
2022-11-29T11:28:54.504Z,39.57
2022-11-29T11:31:35.489Z,37.70
2022-11-29T11:34:27.209Z,38.47
2022-11-29T11:37:17.566Z,38.83
2022-11-29T11:39:47.046Z,39.43
2022-11-29T11:42:35.149Z,38.63
2022-11-29T11:45:04.649Z,40.00
2022-11-29T11:47:36.790Z,39.07
2022-11-29T11:50:13.568Z,38.60
2022-11-29T11:52:50.380Z,38.47
2022-11-29T11:55:34.932Z,38.67
2022-11-29T11:58:10.184Z,38.73
2022-11-29T12:03:46.199Z,38.10
2022-11-29T12:06:29.671Z,37.57
2022-11-29T12:09:04.697Z,38.87
2022-11-29T12:11:39.607Z,38.57
2022-11-29T12:14:09.093Z,40.50
2022-11-29T12:16:40.276Z,39.27
2022-11-29T12:19:16.025Z,39.87
2022-11-29T12:21:48.504Z,39.93
2022-11-29T12:24:26.271Z,39.93
2022-11-29T12:26:58.524Z,38.57
2022-11-29T12:29:33.521Z,41.10
2022-11-29T12:32:12.791Z,39.30
2022-11-29T12:34:53.589Z,39.97
2022-11-29T12:37:28.791Z,39.33
2022-11-29T12:40:06.626Z,39.40
2022-11-29T12:42:47.484Z,38.27
2022-11-29T12:45:35.587Z,39.77
2022-11-29T12:48:14.698Z,39.23
2022-11-29T12:50:52.138Z,39.23
2022-11-29T12:53:35.440Z,39.90
2022-11-29T12:56:15.627Z,39.67
2022-11-29T12:58:54.915Z,39.77
2022-11-29T13:01:31.642Z,39.37
2022-11-29T13:04:11.290Z,38.20
2022-11-29T13:06:44.930Z,40.20
2022-11-29T13:09:33.832Z,37.80
2022-11-29T13:12:07.564Z,39.67
2022-11-29T13:14:43.714Z,38.97
2022-11-29T13:17:28.050Z,39.77
2022-11-29T13:19:59.601Z,39.43
2022-11-29T13:22:33.419Z,39.20
2022-11-29T13:25:05.430Z,38.00
2022-11-29T13:27:39.419Z,39.93
2022-11-29T13:30:08.598Z,41.00
2022-11-29T13:32:38.552Z,39.67
2022-11-29T13:35:13.029Z,40.50
2022-11-29T13:37:54.814Z,40.07
2022-11-29T13:40:32.597Z,40.13
2022-11-29T13:43:10.117Z,41.17
2022-11-29T13:45:43.311Z,39.83
2022-11-29T13:48:34.864Z,40.93
2022-11-29T13:51:28.065Z,39.67
2022-11-29T13:53:56.927Z,38.50
2022-11-29T13:56:36.750Z,41.03
2022-11-29T13:59:15.254Z,40.83
2022-11-29T14:01:48.603Z,42.33
2022-11-29T14:04:26.796Z,40.73
2022-11-29T14:07:12.221Z,40.83
2022-11-29T14:09:51.185Z,41.97
2022-11-29T14:12:36.713Z,40.63
2022-11-29T14:15:19.172Z,41.40
2022-11-29T14:17:53.360Z,42.50
2022-11-29T14:20:59.091Z,41.90
2022-11-29T14:23:35.870Z,39.77
2022-11-29T14:26:30.033Z,42.70
2022-11-29T14:29:01.624Z,43.03
2022-11-29T14:31:51.232Z,41.33
2022-11-29T14:34:42.682Z,40.90
2022-11-29T14:37:31.956Z,41.37
2022-11-29T14:40:05.859Z,42.27
2022-11-29T14:42:33.991Z,42.40
2022-11-29T14:45:04.819Z,42.57
2022-11-29T14:47:36.826Z,42.53
2022-11-29T14:50:09.854Z,43.47
2022-11-29T14:52:40.891Z,42.90
2022-11-29T14:55:30.120Z,42.70
2022-11-29T14:58:16.619Z,41.87
2022-11-29T15:01:12.030Z,41.37
2022-11-29T15:03:50.576Z,42.77
2022-11-29T15:06:25.894Z,42.27
2022-11-29T15:09:01.798Z,43.10
2022-11-29T15:11:46.502Z,42.43
2022-11-29T15:14:20.475Z,42.63
2022-11-29T15:17:16.220Z,41.13
2022-11-29T15:20:07.594Z,42.27
2022-11-29T15:22:47.430Z,45.07
2022-11-29T15:25:17.972Z,45.37
2022-11-29T15:27:53.646Z,48.70
2022-11-29T15:30:33.498Z,46.97
2022-11-29T15:33:03.039Z,43.77
2022-11-29T15:35:33.499Z,42.70
2022-11-29T15:38:01.592Z,44.60
2022-11-29T15:40:35.533Z,42.60
2022-11-29T15:43:15.246Z,41.63
2022-11-29T15:45:49.063Z,39.13
2022-11-29T15:48:22.723Z,40.80
2022-11-29T15:51:01.613Z,43.23
2022-11-29T15:53:34.944Z,42.20
2022-11-29T15:56:05.895Z,43.93
2022-11-29T15:58:35.603Z,38.73
2022-11-29T16:01:04.490Z,41.57
2022-11-29T16:03:34.954Z,41.67
2022-11-29T16:06:08.575Z,38.83
2022-11-29T16:08:41.660Z,41.80
2022-11-29T16:11:16.992Z,39.27
2022-11-29T16:14:02.156Z,39.10
2022-11-29T16:16:32.721Z,41.10
2022-11-29T16:19:10.820Z,40.87
2022-11-29T16:21:40.864Z,40.30
2022-11-29T16:24:14.010Z,40.23
2022-11-29T16:26:44.815Z,42.63
2022-11-29T16:29:24.435Z,40.87
2022-11-29T16:31:53.462Z,40.37
2022-11-29T16:34:27.099Z,41.37
2022-11-29T16:37:05.202Z,42.07
2022-11-29T16:39:34.661Z,47.27
2022-11-29T16:42:07.381Z,39.40
2022-11-29T16:45:12.030Z,41.30
2022-11-29T16:47:58.053Z,39.77
2022-11-29T16:50:27.462Z,38.57
2022-11-29T16:52:58.172Z,41.43
2022-11-29T16:55:26.224Z,39.13
2022-11-29T16:57:54.260Z,38.87
2022-11-29T17:00:33.363Z,41.47
2022-11-29T17:03:01.435Z,39.30
2022-11-29T17:05:29.687Z,40.33
2022-11-29T17:07:59.186Z,40.70
2022-11-29T17:10:28.847Z,39.77
2022-11-29T17:12:56.877Z,37.87
2022-11-29T17:15:24.886Z,40.10
2022-11-29T17:17:52.899Z,41.60
2022-11-29T17:20:20.908Z,40.63
2022-11-29T17:22:49.045Z,41.13
2022-11-29T17:25:18.563Z,41.73
2022-11-29T17:27:46.591Z,40.13
2022-11-29T17:30:15.343Z,40.90
2022-11-29T17:32:43.369Z,42.07
2022-11-29T17:35:11.405Z,40.53
2022-11-29T17:37:39.391Z,39.57
2022-11-29T17:40:08.811Z,38.67
2022-11-29T17:42:38.389Z,40.27
2022-11-29T17:45:07.037Z,41.13
2022-11-29T17:47:35.022Z,39.77
2022-11-29T17:50:03.048Z,41.63
2022-11-29T17:52:31.055Z,43.40
2022-11-29T17:54:59.040Z,42.03
2022-11-29T17:57:27.071Z,40.73
2022-11-29T17:59:56.503Z,41.40
2022-11-29T18:02:24.566Z,41.00
2022-11-29T18:04:52.684Z,43.87
2022-11-29T18:07:20.750Z,42.00
2022-11-29T18:09:49.039Z,40.60
2022-11-29T18:12:17.196Z,46.90
2022-11-29T18:14:45.342Z,43.03
2022-11-29T18:17:14.731Z,43.60
2022-11-29T18:19:43.045Z,47.80
2022-11-29T18:22:11.290Z,49.57
2022-11-29T18:24:43.440Z,47.13
2022-11-29T18:27:11.464Z,43.73
2022-11-29T18:29:39.532Z,42.03
2022-11-29T18:32:07.587Z,42.87
2022-11-29T18:34:36.960Z,41.83
2022-11-29T18:37:05.013Z,42.37
2022-11-29T18:39:33.065Z,42.63
2022-11-29T18:42:01.096Z,43.37
2022-11-29T18:44:30.247Z,41.60
2022-11-29T18:46:58.677Z,42.03
2022-11-29T18:49:26.686Z,42.73
2022-11-29T18:51:56.055Z,42.87
2022-11-29T18:54:24.100Z,42.57
2022-11-29T18:56:52.779Z,41.93
2022-11-29T18:59:22.056Z,42.07
2022-11-29T19:01:50.315Z,42.73
2022-11-29T19:04:20.479Z,45.43
2022-11-29T19:06:49.177Z,42.97
2022-11-29T19:09:21.655Z,44.10
2022-11-29T19:11:50.450Z,43.40
2022-11-29T19:14:19.252Z,42.87
2022-11-29T19:16:49.639Z,41.80
2022-11-29T19:19:18.944Z,44.17
2022-11-29T19:21:47.144Z,43.33
2022-11-29T19:24:17.941Z,44.80
2022-11-29T19:26:48.995Z,43.20
2022-11-29T19:29:18.436Z,43.40
2022-11-29T19:31:46.546Z,44.17
2022-11-29T19:34:14.669Z,43.33
2022-11-29T19:36:44.456Z,43.93
2022-11-29T19:39:14.056Z,45.70
2022-11-29T19:41:44.029Z,43.83
2022-11-29T19:44:14.032Z,43.77
2022-11-29T19:46:43.627Z,43.57
2022-11-29T19:49:11.901Z,46.03
2022-11-29T19:51:40.111Z,44.70
2022-11-29T19:54:09.911Z,44.87
2022-11-29T19:56:38.961Z,43.60
2022-11-29T19:59:07.781Z,42.37
2022-11-29T20:01:41.522Z,45.27
2022-11-29T20:04:12.024Z,45.83
2022-11-29T20:06:40.927Z,44.27
2022-11-29T20:09:08.987Z,43.20
2022-11-29T20:11:37.138Z,45.67
2022-11-29T20:14:06.412Z,42.73
2022-11-29T20:16:37.912Z,42.13
2022-11-29T20:19:10.787Z,45.20
2022-11-29T20:21:43.218Z,45.17
2022-11-29T20:24:12.960Z,44.50
2022-11-29T20:26:42.224Z,45.53
2022-11-29T20:29:10.864Z,41.57
2022-11-29T20:31:49.102Z,44.33
2022-11-29T20:34:19.000Z,43.57
2022-11-29T20:37:08.221Z,46.67
2022-11-29T20:39:42.795Z,46.27
2022-11-29T20:42:26.870Z,47.10
2022-11-29T20:44:56.678Z,45.23
2022-11-29T20:47:28.653Z,46.30
2022-11-29T20:49:57.320Z,47.50
2022-11-29T20:52:37.474Z,45.93
2022-11-29T20:55:06.511Z,48.17
2022-11-29T20:57:34.541Z,49.63
2022-11-29T21:00:02.630Z,47.17
2022-11-29T21:02:32.043Z,48.50
2022-11-29T21:05:00.154Z,46.40
2022-11-29T21:07:29.212Z,46.53
2022-11-29T21:10:01.071Z,47.23
2022-11-29T21:12:30.366Z,48.10
2022-11-29T21:14:58.817Z,46.43
2022-11-29T21:17:33.142Z,48.50
2022-11-29T21:20:04.265Z,47.30
2022-11-29T21:22:40.763Z,46.17
2022-11-29T21:25:20.890Z,48.33
2022-11-29T21:27:49.473Z,46.47
2022-11-29T21:30:20.247Z,46.90
2022-11-29T21:32:49.272Z,46.13
2022-11-29T21:35:18.871Z,48.77
2022-11-29T21:37:47.295Z,47.10
2022-11-29T21:40:16.163Z,45.60
2022-11-29T21:42:44.212Z,47.10
2022-11-29T21:45:15.704Z,46.20
2022-11-29T21:47:44.974Z,46.57
2022-11-29T21:50:16.126Z,46.27
2022-11-29T21:52:45.469Z,45.10
2022-11-29T21:55:13.490Z,46.63
2022-11-29T21:57:41.581Z,49.93
2022-11-29T22:00:10.583Z,46.43
2022-11-29T22:02:38.654Z,48.17
2022-11-29T22:05:10.103Z,48.73
2022-11-29T22:07:38.128Z,48.67
2022-11-29T22:10:13.357Z,48.50
2022-11-29T22:12:51.207Z,46.03
2022-11-29T22:15:24.582Z,48.50
2022-11-29T22:17:53.074Z,46.80
2022-11-29T22:20:21.289Z,49.47
2022-11-29T22:22:49.431Z,48.20
2022-11-29T22:25:18.984Z,47.53
2022-11-29T22:27:47.006Z,46.93
2022-11-29T22:30:15.304Z,47.20
2022-11-29T22:32:43.313Z,48.50
2022-11-29T22:35:11.346Z,46.37
2022-11-29T22:37:39.412Z,46.73
2022-11-29T22:40:08.727Z,45.80
2022-11-29T22:42:38.086Z,48.10
2022-11-29T22:45:06.551Z,49.83
2022-11-29T22:47:34.548Z,47.43
2022-11-29T22:50:02.670Z,48.80
2022-11-29T22:52:30.696Z,47.17
2022-11-29T22:55:04.222Z,47.87
2022-11-29T22:57:32.912Z,47.70
2022-11-29T23:00:02.328Z,46.77
2022-11-29T23:02:30.388Z,46.97
2022-11-29T23:04:58.461Z,46.03
2022-11-29T23:07:26.591Z,47.47
2022-11-29T23:09:55.990Z,48.20
2022-11-29T23:12:24.046Z,46.83
2022-11-29T23:14:56.356Z,45.77
2022-11-29T23:17:26.219Z,46.00
2022-11-29T23:19:54.243Z,44.73
2022-11-29T23:22:22.242Z,44.60
2022-11-29T23:24:50.211Z,43.57
2022-11-29T23:27:18.268Z,45.70
2022-11-29T23:29:46.240Z,46.53
2022-11-29T23:32:14.285Z,45.70
2022-11-29T23:34:43.789Z,44.73
2022-11-29T23:37:11.964Z,42.00
2022-11-29T23:39:40.058Z,44.50
2022-11-29T23:42:08.129Z,46.00
2022-11-29T23:44:36.148Z,45.37
2022-11-29T23:47:04.167Z,46.97
2022-11-29T23:49:35.300Z,46.40
2022-11-29T23:52:04.792Z,45.97
2022-11-29T23:54:32.796Z,45.43
2022-11-29T23:57:00.795Z,42.83
2022-11-29T23:59:28.832Z,45.87
